Torbert, Louisiana
Current Conditions -  °F | °C
As of 2:15 PM on Thursday 23 Oct 2014 (Local Time) from KHZR Reporting Station
Clear Clear  
Wind Chill: 71°   Ceiling: Unl
Heat Index: 71°   Visibility: 10mi
Dew Point: 48°   Wind: 0mph
Humidity: 43%   Direction: NA
Pressure: 30.07"   Gusts: NA
Location:  30.55°N, 91.49°W
Report Text: KHZR 231915Z AUTO 00000KT 10SM CLR 22/09 A3007 RMK AO2 T02180087
Loading
Personal Weather Stations






























Interactive Weather Map
Tropical Storm Tracking
New forecast layout! Learn more

10-Day Weather Forecast

Advertisements
Track Severe Weather on mobile